Time;durP1;ratioP1;P1;durP2;ratioP2;P2;SDS_P1;SDS_P2;PMS_P1;PMS_P2;Temp;Humidity;BMP_temperature;BMP_pressure;BME280_temperature;BME280_humidity;BME280_pressure;Samples;Min_cycle;Max_cycle;Signal;HPM_P1;HPM_P2
2023/03/09 00:00:08;;;;;;;9.60;8.00;;;;;;;-0.34;100.00;99476.09;10227516;28;20068;-75
2023/03/09 00:05:06;;;;;;;8.82;7.95;;;;;;;-0.28;100.00;99474.19;10222290;28;20392;-77
2023/03/09 00:10:03;;;;;;;12.25;8.27;;;;;;;-0.32;100.00;99484.69;10230783;28;20573;-76
2023/03/09 00:14:59;;;;;;;9.65;7.90;;;;;;;-0.22;100.00;99490.00;10217906;28;20060;-77
2023/03/09 00:20:06;;;;;;;14.10;8.73;;;;;;;-0.28;100.00;99484.94;10222453;28;20141;-77
2023/03/09 00:25:02;;;;;;;9.75;7.68;;;;;;;-0.23;100.00;99499.16;10227802;28;20555;-76
2023/03/09 00:29:59;;;;;;;7.93;7.13;;;;;;;-0.36;100.00;99472.09;10224164;28;20041;-77
2023/03/09 00:34:56;;;;;;;8.90;8.10;;;;;;;-0.27;100.00;99471.22;10228041;28;20089;-77
2023/03/09 00:39:53;;;;;;;8.45;7.65;;;;;;;-0.36;100.00;99478.25;10223383;28;20099;-77
2023/03/09 00:44:50;;;;;;;9.13;8.23;;;;;;;-0.34;100.00;99469.94;10226587;28;20049;-77
2023/03/09 00:49:47;;;;;;;8.38;7.57;;;;;;;-0.36;100.00;99456.78;10233159;28;20050;-76
2023/03/09 00:54:43;;;;;;;8.75;7.75;;;;;;;-0.43;100.00;99451.69;10226306;28;20038;-77
2023/03/09 00:59:44;;;;;;;9.10;7.57;;;;;;;-0.39;100.00;99449.28;10230787;28;20049;-77
2023/03/09 01:04:40;;;;;;;9.50;7.25;;;;;;;-0.44;100.00;99438.56;10236871;28;20498;-77
2023/03/09 01:09:37;;;;;;;9.63;7.53;;;;;;;-0.44;100.00;99438.56;10237179;28;20045;-77
2023/03/09 01:14:34;;;;;;;8.70;7.22;;;;;;;-0.52;100.00;99437.25;10233931;28;20077;-77
2023/03/09 01:19:31;;;;;;;12.75;8.00;;;;;;;-0.53;100.00;99440.22;10233748;28;20546;-77
2023/03/09 01:24:29;;;;;;;9.98;7.50;;;;;;;-0.60;100.00;99445.06;10234889;28;20061;-77
2023/03/09 01:29:26;;;;;;;8.27;7.35;;;;;;;-0.58;100.00;99438.38;10237389;28;20521;-76
2023/03/09 01:34:22;;;;;;;9.02;7.70;;;;;;;-0.67;100.00;99435.44;10234941;28;20042;-77
2023/03/09 01:39:18;;;;;;;9.15;7.70;;;;;;;-0.65;100.00;99438.66;10236574;28;20555;-77
2023/03/09 01:44:15;;;;;;;8.93;7.40;;;;;;;-0.60;100.00;99432.47;10225043;28;20067;-76
2023/03/09 01:49:14;;;;;;;8.52;7.47;;;;;;;-0.53;100.00;99432.16;10226495;28;20073;-76
2023/03/09 01:54:16;;;;;;;9.50;8.50;;;;;;;-0.58;100.00;99437.53;10228372;28;20144;-77
2023/03/09 01:59:12;;;;;;;11.80;7.97;;;;;;;-0.55;100.00;99432.44;10228390;28;20068;-77
2023/03/09 02:04:15;;;;;;;9.57;7.38;;;;;;;-0.49;100.00;99430.50;10226686;28;20045;-77
2023/03/09 02:09:38;;;;;;;8.43;7.30;;;;;;;-0.51;100.00;99427.31;10233651;28;20487;-77
2023/03/09 02:14:35;;;;;;;7.85;7.05;;;;;;;-0.42;100.00;99425.66;10224967;28;20057;-76
2023/03/09 02:20:04;;;;;;;9.68;7.80;;;;;;;-0.43;100.00;99432.09;10233979;28;20037;-76
2023/03/09 02:25:09;;;;;;;8.30;6.78;;;;;;;-0.38;100.00;99434.75;10221892;28;20057;-77
2023/03/09 02:30:07;;;;;;;10.27;7.50;;;;;;;-0.59;100.00;99433.25;10230191;28;20073;-76
2023/03/09 02:35:08;;;;;;;9.50;7.40;;;;;;;-0.52;100.00;99436.44;10229672;28;20094;-76
2023/03/09 02:40:29;;;;;;;10.60;7.78;;;;;;;-0.52;100.00;99441.81;10231581;28;20042;-76
2023/03/09 02:45:27;;;;;;;8.07;6.95;;;;;;;-0.55;100.00;99435.13;10229070;28;20834;-76
2023/03/09 02:50:25;;;;;;;8.45;6.57;;;;;;;-0.53;100.00;99450.97;10224673;28;20046;-76
2023/03/09 02:55:21;;;;;;;9.30;7.20;;;;;;;-0.60;100.00;99453.13;10227505;28;20114;-76
2023/03/09 03:00:21;;;;;;;9.60;8.25;;;;;;;-0.56;100.00;99446.91;10228171;28;20479;-76
2023/03/09 03:05:18;;;;;;;9.43;8.27;;;;;;;-0.66;100.00;99453.13;10232448;28;20099;-76
2023/03/09 03:10:15;;;;;;;10.02;7.55;;;;;;;-0.64;100.00;99460.94;10229758;28;20072;-76
2023/03/09 03:15:12;;;;;;;9.60;7.28;;;;;;;-0.64;100.00;99461.72;10230261;28;20124;-76
2023/03/09 03:20:13;;;;;;;9.80;7.93;;;;;;;-0.61;100.00;99465.75;10223234;28;20042;-75
2023/03/09 03:25:11;;;;;;;9.70;8.05;;;;;;;-0.54;100.00;99470.81;10258099;28;20601;-77
2023/03/09 03:30:09;;;;;;;12.85;8.68;;;;;;;-0.54;100.00;99470.81;10228013;28;20050;-76
2023/03/09 03:35:06;;;;;;;9.27;8.20;;;;;;;-0.57;100.00;99480.22;10228439;28;20169;-76
2023/03/09 03:40:06;;;;;;;10.73;8.63;;;;;;;-0.52;100.00;99479.41;10231215;28;20455;-75
2023/03/09 03:45:03;;;;;;;9.95;8.50;;;;;;;-0.59;100.00;99484.28;10224522;28;20120;-75
2023/03/09 03:50:00;;;;;;;13.02;7.95;;;;;;;-0.55;100.00;99496.06;10227080;28;20049;-77
2023/03/09 03:54:56;;;;;;;10.32;8.73;;;;;;;-0.63;100.00;99494.72;10226660;28;20060;-76
2023/03/09 03:59:53;;;;;;;9.43;8.40;;;;;;;-0.49;100.00;99500.34;10219178;28;20417;-77
2023/03/09 04:04:49;;;;;;;11.98;8.93;;;;;;;-0.47;100.00;99498.19;10219569;28;20068;-77
2023/03/09 04:09:45;;;;;;;11.40;9.57;;;;;;;-0.52;100.00;99512.44;10219742;28;20115;-76
2023/03/09 04:14:42;;;;;;;14.43;8.50;;;;;;;-0.44;100.00;99519.13;10219192;28;20075;-77
2023/03/09 04:19:39;;;;;;;10.55;9.45;;;;;;;-0.43;100.00;99526.09;10228224;28;20136;-76
2023/03/09 04:24:36;;;;;;;11.57;8.93;;;;;;;-0.38;100.00;99526.06;10221439;28;20494;-77
2023/03/09 04:29:32;;;;;;;10.98;9.05;;;;;;;-0.35;100.00;99520.16;10226161;28;20049;-77
2023/03/09 04:34:29;;;;;;;11.43;8.38;;;;;;;-0.35;100.00;99528.19;10219958;28;20068;-77
2023/03/09 04:39:25;;;;;;;11.38;8.57;;;;;;;-0.34;100.00;99537.09;10221707;28;20049;-76
2023/03/09 04:44:21;;;;;;;11.93;9.10;;;;;;;-0.37;100.00;99541.13;10225012;28;20113;-77
2023/03/09 04:49:18;;;;;;;10.63;9.52;;;;;;;-0.40;100.00;99555.09;10224526;28;20044;-77
2023/03/09 04:54:14;;;;;;;11.38;9.52;;;;;;;-0.41;100.00;99556.16;10225146;28;20073;-77
2023/03/09 04:59:11;;;;;;;13.85;10.68;;;;;;;-0.28;100.00;99555.59;10221393;28;20137;-77
2023/03/09 05:04:09;;;;;;;13.23;10.25;;;;;;;-0.35;100.00;99560.44;10223098;28;20057;-77
2023/03/09 05:09:05;;;;;;;11.88;9.85;;;;;;;-0.30;100.00;99571.19;10214512;28;20137;-77
2023/03/09 05:14:02;;;;;;;13.32;10.60;;;;;;;-0.36;100.00;99561.53;10219042;28;20050;-77
2023/03/09 05:18:58;;;;;;;14.10;11.32;;;;;;;-0.27;100.00;99564.47;10217211;28;20064;-77
2023/03/09 05:23:55;;;;;;;14.10;10.32;;;;;;;-0.24;100.00;99562.00;10214631;28;20152;-76
2023/03/09 05:28:52;;;;;;;12.30;9.85;;;;;;;-0.17;100.00;99571.66;10211819;28;20132;-77
2023/03/09 05:33:48;;;;;;;16.55;12.20;;;;;;;-0.30;100.00;99571.19;10214705;28;20140;-77
2023/03/09 05:38:45;;;;;;;16.35;12.30;;;;;;;-0.30;100.00;99573.03;10215839;28;20121;-76
2023/03/09 05:43:42;;;;;;;18.40;12.52;;;;;;;-0.41;100.00;99588.41;10238231;28;20737;-76
2023/03/09 05:48:39;;;;;;;14.43;12.48;;;;;;;-0.47;100.00;99579.53;10234501;28;20038;-77
2023/03/09 05:53:36;;;;;;;13.82;12.30;;;;;;;-0.41;100.00;99588.41;10228635;28;20044;-77
2023/03/09 05:58:34;;;;;;;14.25;12.63;;;;;;;-0.50;100.00;99606.16;10229045;28;20074;-76
2023/03/09 06:03:30;;;;;;;17.75;13.15;;;;;;;-0.44;100.00;99605.06;10229920;28;20469;-77
2023/03/09 06:08:28;;;;;;;16.45;14.25;;;;;;;-0.55;100.00;99619.59;10232796;28;20041;-76
2023/03/09 06:13:25;;;;;;;17.33;13.35;;;;;;;-0.51;100.00;99615.25;10234315;28;20396;-76
2023/03/09 06:18:21;;;;;;;17.05;13.10;;;;;;;-0.54;100.00;99621.97;10226399;28;20048;-77
2023/03/09 06:23:18;;;;;;;21.15;14.20;;;;;;;-0.65;100.00;99626.56;10219677;28;20037;-77
2023/03/09 06:28:14;;;;;;;15.85;14.25;;;;;;;-0.54;100.00;99637.28;10218581;28;20411;-76
2023/03/09 06:33:11;;;;;;;17.55;13.88;;;;;;;-0.47;100.00;99653.94;10229710;28;20055;-77
2023/03/09 06:38:08;;;;;;;18.15;13.88;;;;;;;-0.37;100.00;99651.25;10232080;28;20045;-76
2023/03/09 06:43:05;;;;;;;19.05;14.45;;;;;;;-0.26;100.00;99665.44;10225948;28;20052;-76
2023/03/09 06:48:01;;;;;;;19.80;14.15;;;;;;;-0.20;100.00;99674.31;10230028;28;20060;-77
2023/03/09 06:52:58;;;;;;;17.33;14.35;;;;;;;-0.14;100.00;99673.22;10232641;28;20095;-77
2023/03/09 06:57:54;;;;;;;20.98;13.80;;;;;;;-0.05;100.00;99674.25;10218065;28;20550;-77
2023/03/09 07:02:51;;;;;;;15.80;13.98;;;;;;;-0.03;100.00;99677.50;10230719;28;20052;-77
2023/03/09 07:07:48;;;;;;;18.60;13.90;;;;;;;0.03;100.00;99673.72;10230094;28;20450;-76
2023/03/09 07:12:47;;;;;;;17.52;13.45;;;;;;;-0.06;100.00;99676.16;10231973;28;20507;-77
2023/03/09 07:17:44;;;;;;;16.38;13.82;;;;;;;0.08;100.00;99699.78;10229350;28;20049;-76
2023/03/09 07:22:41;;;;;;;17.10;13.50;;;;;;;0.06;100.00;99716.16;10228269;28;20050;-76
2023/03/09 07:27:37;;;;;;;17.90;14.70;;;;;;;0.24;100.00;99730.13;10227395;28;20522;-77
2023/03/09 07:32:34;;;;;;;19.70;13.48;;;;;;;0.36;100.00;99735.97;10224515;28;20135;-77
2023/03/09 07:37:30;;;;;;;18.02;12.82;;;;;;;0.56;100.00;99735.91;10221477;28;20048;-77
2023/03/09 07:42:26;;;;;;;17.67;12.00;;;;;;;0.74;100.00;99736.38;10221321;28;20079;-77
2023/03/09 07:47:33;;;;;;;19.88;13.20;;;;;;;0.79;100.00;99742.53;10217889;28;20045;-77
2023/03/09 07:52:32;;;;;;;30.77;13.23;;;;;;;0.98;100.00;99752.69;10221245;28;20042;-77
2023/03/09 07:57:32;;;;;;;16.63;13.27;;;;;;;1.03;100.00;99756.13;10228018;28;20136;-77
2023/03/09 08:02:28;;;;;;;16.55;12.13;;;;;;;1.24;100.00;99745.25;10220708;28;20131;-77
2023/03/09 08:07:25;;;;;;;18.85;12.90;;;;;;;1.16;100.00;99759.28;10226142;28;20103;-77
2023/03/09 08:12:22;;;;;;;15.80;12.15;;;;;;;1.28;100.00;99757.06;10223523;28;20474;-76
2023/03/09 08:17:18;;;;;;;18.13;12.13;;;;;;;1.45;100.00;99762.88;10229873;28;20180;-77
2023/03/09 08:22:16;;;;;;;16.40;12.63;;;;;;;1.50;100.00;99769.31;10228845;28;20140;-77
2023/03/09 08:27:13;;;;;;;15.15;11.20;;;;;;;1.75;100.00;99766.41;10216563;28;20046;-77
2023/03/09 08:32:10;;;;;;;16.20;12.63;;;;;;;1.85;100.00;99755.53;10222217;28;20445;-76
2023/03/09 08:37:06;;;;;;;10.75;8.98;;;;;;;1.87;100.00;99756.06;10227532;28;20056;-77
2023/03/09 08:42:03;;;;;;;17.63;11.90;;;;;;;1.94;100.00;99771.13;10230281;28;20132;-76
2023/03/09 08:46:59;;;;;;;13.88;10.75;;;;;;;1.84;100.00;99767.41;10227695;28;20628;-75
2023/03/09 08:51:56;;;;;;;16.52;11.50;;;;;;;1.85;100.00;99777.09;10227165;28;20459;-75
2023/03/09 08:56:52;;;;;;;15.13;11.73;;;;;;;1.86;100.00;99784.13;10214421;28;20041;-75
2023/03/09 09:01:49;;;;;;;15.95;11.30;;;;;;;2.18;100.00;99780.06;10224103;28;20037;-75
2023/03/09 09:06:45;;;;;;;12.52;10.65;;;;;;;2.45;100.00;99773.31;10211761;28;20049;-75
2023/03/09 09:11:42;;;;;;;14.65;10.27;;;;;;;2.57;100.00;99779.09;10224065;28;20060;-75
2023/03/09 09:16:38;;;;;;;13.65;10.60;;;;;;;2.29;100.00;99786.94;10231938;28;20530;-75
2023/03/09 09:21:35;;;;;;;15.48;10.40;;;;;;;2.90;100.00;99790.03;10232721;28;20049;-75
2023/03/09 09:26:31;;;;;;;13.65;9.75;;;;;;;3.04;100.00;99785.56;10230083;28;20412;-75
2023/03/09 09:31:29;;;;;;;13.45;10.13;;;;;;;2.72;100.00;99789.72;10235607;28;20045;-75
2023/03/09 09:36:25;;;;;;;13.75;10.60;;;;;;;3.04;100.00;99790.13;10234043;28;20076;-74
2023/03/09 09:41:32;;;;;;;11.25;9.95;;;;;;;3.24;100.00;99791.78;10227993;28;20041;-74
2023/03/09 09:46:31;;;;;;;12.77;9.82;;;;;;;3.23;100.00;99803.69;10232639;28;20077;-74
2023/03/09 09:51:46;;;;;;;12.63;9.70;;;;;;;3.39;100.00;99802.38;10218822;28;20723;-74
2023/03/09 09:56:48;;;;;;;13.38;9.20;;;;;;;3.65;100.00;99799.28;10227335;28;20053;-74
2023/03/09 10:01:50;;;;;;;10.85;9.38;;;;;;;3.56;100.00;99816.16;10230552;28;20065;-75
2023/03/09 10:06:48;;;;;;;12.40;10.80;;;;;;;3.66;100.00;99817.09;10229777;28;20053;-73
2023/03/09 10:11:49;;;;;;;11.07;9.50;;;;;;;3.58;100.00;99811.28;10232389;28;20571;-74
2023/03/09 10:17:05;;;;;;;11.10;8.77;;;;;;;3.01;100.00;99813.13;10222963;28;20507;-73
2023/03/09 10:22:06;;;;;;;17.45;10.27;;;;;;;3.71;100.00;99815.16;10231615;28;20050;-73
2023/03/09 10:27:17;;;;;;;10.50;9.50;;;;;;;3.52;100.00;99828.66;10230677;28;20076;-74
2023/03/09 10:32:35;;;;;;;;;;;;;;;3.80;100.00;99828.78;10226781;28;20045;-74
2023/03/09 10:37:35;;;;;;;11.95;9.20;;;;;;;3.72;100.00;99827.56;10228233;28;19921;-74
2023/03/09 10:42:36;;;;;;;12.13;9.38;;;;;;;3.91;100.00;99841.06;10229178;28;20056;-74
2023/03/09 10:47:52;;;;;;;10.75;9.63;;;;;;;3.92;100.00;99837.25;10225248;28;20060;-74
2023/03/09 10:52:49;;;;;;;11.98;9.00;;;;;;;4.28;100.00;99844.78;10215788;28;20411;-76
2023/03/09 10:57:57;;;;;;;13.88;10.05;;;;;;;4.35;100.00;99850.59;10227210;28;20045;-72
2023/03/09 11:02:58;;;;;;;15.43;9.70;;;;;;;4.48;100.00;99859.03;10221023;28;20507;-75
2023/03/09 11:08:02;;;;;;;10.40;9.23;;;;;;;4.55;100.00;99848.63;10228435;28;20522;-76
2023/03/09 11:13:00;;;;;;;10.30;9.20;;;;;;;4.88;100.00;99851.28;10231428;28;20140;-76
2023/03/09 11:17:58;;;;;;;12.70;9.10;;;;;;;5.09;100.00;99846.25;10225183;28;20060;-76
2023/03/09 11:23:00;;;;;;;10.85;9.23;;;;;;;5.36;100.00;99846.22;10222723;28;20411;-76
2023/03/09 11:28:03;;;;;;;11.65;10.45;;;;;;;5.43;100.00;99837.66;10226733;28;20160;-76
2023/03/09 11:32:59;;;;;;;9.93;9.00;;;;;;;6.05;100.00;99851.44;10228442;28;20046;-76
2023/03/09 11:38:05;;;;;;;11.77;8.73;;;;;;;6.05;100.00;99845.22;10219838;28;20064;-75
2023/03/09 11:43:14;;;;;;;9.88;8.73;;;;;;;5.90;100.00;99835.53;10218915;28;20123;-76
2023/03/09 11:48:31;;;;;;;9.88;8.88;;;;;;;6.11;100.00;99839.38;10220032;28;20500;-76
2023/03/09 11:53:33;;;;;;;11.13;9.93;;;;;;;5.57;100.00;99841.16;10224371;28;20077;-76
2023/03/09 11:58:37;;;;;;;13.83;9.03;;;;;;;4.99;100.00;99853.50;10230200;28;20073;-76
2023/03/09 12:03:42;;;;;;;10.60;8.90;;;;;;;5.21;100.00;99844.63;10218758;28;20049;-76
2023/03/09 12:08:43;;;;;;;12.30;9.93;;;;;;;4.85;100.00;99848.06;10217325;28;20041;-76
2023/03/09 12:13:50;;;;;;;10.70;8.23;;;;;;;5.77;100.00;99850.72;10225875;28;20076;-76
2023/03/09 12:19:15;;;;;;;12.07;9.50;;;;;;;5.66;100.00;99850.19;10230099;28;20128;-76
2023/03/09 12:24:39;;;;;;;10.90;9.20;;;;;;;5.43;100.00;99843.09;10225307;28;20141;-75
2023/03/09 12:29:41;;;;;;;10.60;8.77;;;;;;;5.50;100.00;99840.78;10215813;28;20095;-75
2023/03/09 12:34:40;;;;;;;11.93;9.13;;;;;;;5.46;100.00;99834.34;10217694;28;20084;-75
2023/03/09 12:39:42;;;;;;;10.07;9.10;;;;;;;5.44;100.00;99836.56;10226802;28;20128;-75
2023/03/09 12:44:47;;;;;;;9.60;8.60;;;;;;;5.35;100.00;99822.13;10221972;28;20279;-75
2023/03/09 12:49:47;;;;;;;9.73;8.80;;;;;;;5.47;100.00;99823.19;10228275;28;20045;-75
2023/03/09 12:54:44;;;;;;;10.63;8.75;;;;;;;5.47;100.00;99815.06;10219932;28;20526;-75
2023/03/09 12:59:40;;;;;;;9.50;8.57;;;;;;;5.69;100.00;99825.16;10222758;28;20522;-75
2023/03/09 13:04:37;;;;;;;9.60;8.70;;;;;;;5.56;100.00;99830.63;10224093;28;20518;-75
2023/03/09 13:09:40;;;;;;;10.25;9.25;;;;;;;5.77;100.00;99822.81;10226633;28;20041;-75
2023/03/09 13:14:39;;;;;;;9.05;8.25;;;;;;;5.49;100.00;99831.03;10221448;28;20600;-76
2023/03/09 13:19:35;;;;;;;10.02;8.75;;;;;;;5.63;100.00;99839.91;10228476;28;20072;-76
2023/03/09 13:24:35;;;;;;;10.20;9.23;;;;;;;5.27;100.00;99835.28;10227103;28;20149;-75
2023/03/09 13:29:33;;;;;;;11.18;9.52;;;;;;;5.25;100.00;99834.00;10221902;28;20038;-75
2023/03/09 13:34:45;;;;;;;9.27;8.20;;;;;;;5.22;100.00;99831.88;10224137;28;20089;-76
2023/03/09 13:40:00;;;;;;;10.25;8.85;;;;;;;5.42;100.00;99839.56;10218202;28;20197;-75
2023/03/09 13:44:57;;;;;;;10.65;9.55;;;;;;;5.30;100.00;99843.94;10218946;28;20136;-75
2023/03/09 13:49:55;;;;;;;13.32;9.13;;;;;;;5.48;100.00;99840.28;10228028;28;20041;-75
2023/03/09 13:54:55;;;;;;;10.32;9.23;;;;;;;5.40;100.00;99841.00;10229708;28;21476;-75
2023/03/09 13:59:56;;;;;;;9.68;8.68;;;;;;;5.06;100.00;99836.84;10229167;28;20068;-76
2023/03/09 14:04:55;;;;;;;12.32;9.52;;;;;;;5.26;100.00;99830.97;10232079;28;20049;-76
2023/03/09 14:09:58;;;;;;;10.32;8.48;;;;;;;5.37;100.00;99825.34;10232469;28;20044;-75
2023/03/09 14:14:56;;;;;;;10.10;8.33;;;;;;;5.14;100.00;99833.41;10234714;28;20411;-76
2023/03/09 14:19:56;;;;;;;9.63;8.63;;;;;;;5.20;100.00;99831.41;10224854;28;20044;-77
2023/03/09 14:24:53;;;;;;;11.18;8.95;;;;;;;5.10;100.00;99837.81;10224334;28;20597;-75
2023/03/09 14:29:50;;;;;;;9.60;8.57;;;;;;;4.95;100.00;99824.59;10221919;28;20072;-76
2023/03/09 14:34:46;;;;;;;9.38;8.38;;;;;;;4.73;100.00;99823.38;10226651;28;20075;-75
2023/03/09 14:39:43;;;;;;;9.45;8.55;;;;;;;4.93;100.00;99829.50;10229482;28;20087;-75
2023/03/09 14:44:43;;;;;;;9.27;8.38;;;;;;;4.82;100.00;99820.78;10225207;28;20117;-75
2023/03/09 14:49:40;;;;;;;9.30;8.40;;;;;;;4.66;100.00;99817.56;10230200;28;20408;-75
2023/03/09 14:54:37;;;;;;;9.27;8.38;;;;;;;4.46;100.00;99817.97;10226630;28;20392;-74
2023/03/09 14:59:34;;;;;;;9.35;8.00;;;;;;;4.61;100.00;99810.34;10231721;28;20565;-74
2023/03/09 15:04:30;;;;;;;9.32;8.43;;;;;;;4.51;100.00;99809.75;10224582;28;20046;-74
2023/03/09 15:09:27;;;;;;;8.85;8.02;;;;;;;4.51;100.00;99815.16;10225430;28;20487;-74
2023/03/09 15:14:41;;;;;;;8.70;7.80;;;;;;;4.46;100.00;99801.72;10229972;28;20511;-74
2023/03/09 15:19:37;;;;;;;10.38;8.45;;;;;;;4.14;100.00;99800.66;10217379;28;20129;-74
2023/03/09 15:24:36;;;;;;;9.70;8.70;;;;;;;4.21;100.00;99809.19;10225864;28;20046;-75
2023/03/09 15:29:33;;;;;;;9.38;8.45;;;;;;;4.25;100.00;99802.09;10222692;28;20069;-74
2023/03/09 15:34:30;;;;;;;12.00;8.85;;;;;;;4.18;100.00;99796.25;10226428;28;20041;-75
2023/03/09 15:39:26;;;;;;;11.43;9.27;;;;;;;4.15;100.00;99791.44;10231504;28;20099;-75
2023/03/09 15:44:23;;;;;;;10.48;9.07;;;;;;;4.11;100.00;99779.63;10222538;28;20115;-75
2023/03/09 15:49:20;;;;;;;10.27;8.93;;;;;;;4.05;100.00;99791.63;10224797;28;20081;-75
2023/03/09 15:54:16;;;;;;;9.02;8.10;;;;;;;4.09;100.00;99787.22;10231244;28;20052;-75
2023/03/09 15:59:13;;;;;;;12.43;10.00;;;;;;;3.93;100.00;99784.75;10219197;28;20144;-75
2023/03/09 16:04:10;;;;;;;9.43;8.52;;;;;;;3.84;100.00;99794.66;10223550;28;20089;-75
2023/03/09 16:09:06;;;;;;;11.80;9.57;;;;;;;3.90;100.00;99789.94;10230396;28;20076;-75
2023/03/09 16:14:04;;;;;;;10.63;9.32;;;;;;;3.72;100.00;99794.31;10224786;28;20049;-75
2023/03/09 16:19:00;;;;;;;10.27;9.20;;;;;;;3.73;100.00;99785.88;10223967;28;20041;-75
2023/03/09 16:23:56;;;;;;;10.77;9.25;;;;;;;3.65;100.00;99783.88;10225190;28;20715;-75
2023/03/09 16:28:54;;;;;;;10.35;9.35;;;;;;;3.59;100.00;99785.84;10221036;28;20056;-75
2023/03/09 16:33:52;;;;;;;9.38;8.43;;;;;;;3.64;100.00;99790.34;10226603;28;20535;-77
2023/03/09 16:38:52;;;;;;;11.65;10.43;;;;;;;3.55;100.00;99787.53;10217243;28;20694;-75
2023/03/09 16:43:50;;;;;;;14.25;8.93;;;;;;;3.43;100.00;99802.56;10221771;28;20491;-75
2023/03/09 16:48:46;;;;;;;12.63;9.40;;;;;;;3.39;100.00;99807.78;10222282;28;20068;-76
2023/03/09 16:53:43;;;;;;;11.80;10.52;;;;;;;3.28;100.00;99795.50;10216344;28;20065;-75
2023/03/09 16:58:40;;;;;;;11.13;9.90;;;;;;;3.08;100.00;99808.16;10227578;28;20133;-75
2023/03/09 17:03:36;;;;;;;16.73;10.57;;;;;;;2.80;100.00;99806.38;10219487;28;20052;-75
2023/03/09 17:08:34;;;;;;;17.88;12.32;;;;;;;2.77;100.00;99817.75;10217730;28;20077;-75
2023/03/09 17:13:30;;;;;;;11.93;10.63;;;;;;;2.76;100.00;99818.84;10217058;28;20062;-75
2023/03/09 17:18:27;;;;;;;13.88;11.57;;;;;;;2.68;100.00;99812.97;10221050;28;20038;-76
2023/03/09 17:23:23;;;;;;;16.70;12.25;;;;;;;2.61;100.00;99820.63;10221569;28;20110;-75
2023/03/09 17:28:20;;;;;;;15.70;12.68;;;;;;;2.60;100.00;99819.03;10225142;28;20512;-75
2023/03/09 17:33:16;;;;;;;16.58;13.00;;;;;;;2.58;100.00;99825.81;10226565;28;20104;-75
2023/03/09 17:38:14;;;;;;;16.42;12.93;;;;;;;2.50;100.00;99829.91;10231164;28;20725;-74
2023/03/09 17:43:11;;;;;;;17.95;13.70;;;;;;;2.44;100.00;99825.66;10223705;28;20573;-75
2023/03/09 17:48:09;;;;;;;19.80;13.25;;;;;;;2.42;100.00;99833.25;10230696;28;20092;-75
2023/03/09 17:53:05;;;;;;;16.88;13.57;;;;;;;2.29;100.00;99834.69;10232519;28;20562;-75
2023/03/09 17:58:03;;;;;;;16.63;13.57;;;;;;;2.35;100.00;99838.16;10227456;28;20053;-75
2023/03/09 18:02:59;;;;;;;19.98;14.18;;;;;;;2.20;100.00;99837.19;10238831;28;20046;-75
2023/03/09 18:07:57;;;;;;;26.40;14.68;;;;;;;2.27;100.00;99836.88;10224004;28;20503;-75
2023/03/09 18:12:53;;;;;;;19.10;13.65;;;;;;;2.23;100.00;99842.03;10229961;28;20076;-75
2023/03/09 18:17:50;;;;;;;18.08;13.50;;;;;;;2.22;100.00;99845.00;10234672;28;20107;-75
2023/03/09 18:22:46;;;;;;;18.13;14.32;;;;;;;2.15;100.00;99858.81;10233880;28;20057;-75
2023/03/09 18:27:43;;;;;;;22.10;15.30;;;;;;;2.06;100.00;99857.81;10219173;28;20068;-75
2023/03/09 18:32:39;;;;;;;21.70;15.50;;;;;;;2.07;100.00;99862.16;10229879;28;20518;-75
2023/03/09 18:37:39;;;;;;;19.52;14.75;;;;;;;2.01;100.00;99860.56;10221006;28;20042;-75
2023/03/09 18:42:36;;;;;;;20.80;15.52;;;;;;;1.99;100.00;99854.66;10234620;28;20045;-75
2023/03/09 18:47:32;;;;;;;22.13;16.08;;;;;;;1.97;100.00;99854.13;10226815;28;20053;-75
2023/03/09 18:52:29;;;;;;;21.63;15.82;;;;;;;1.91;100.00;99847.19;10226482;28;20045;-75
2023/03/09 18:57:25;;;;;;;22.88;14.70;;;;;;;1.94;100.00;99833.91;10217955;28;20056;-75
2023/03/09 19:02:21;;;;;;;20.40;15.82;;;;;;;1.88;100.00;99833.16;10230422;28;20052;-75
2023/03/09 19:07:18;;;;;;;24.08;17.02;;;;;;;1.81;100.00;99823.78;10225309;28;20045;-75
2023/03/09 19:12:14;;;;;;;25.50;16.80;;;;;;;1.90;100.00;99819.38;10231119;28;20076;-76
2023/03/09 19:17:11;;;;;;;24.90;18.38;;;;;;;1.71;100.00;99824.66;10223302;28;20059;-75
2023/03/09 19:22:07;;;;;;;21.88;17.10;;;;;;;1.86;100.00;99811.06;10212217;28;20045;-75
2023/03/09 19:27:04;;;;;;;26.15;18.13;;;;;;;1.93;100.00;99820.72;10213455;28;20049;-75
2023/03/09 19:32:00;;;;;;;24.15;17.90;;;;;;;1.96;100.00;99809.38;10204587;28;20503;-75
2023/03/09 19:36:57;;;;;;;26.85;19.88;;;;;;;1.76;100.00;99805.75;10215020;28;20551;-75
2023/03/09 19:41:54;;;;;;;26.77;17.83;;;;;;;1.88;100.00;99795.44;10212124;28;20037;-75
2023/03/09 19:46:51;;;;;;;27.75;18.60;;;;;;;1.93;100.00;99789.19;10207868;28;20072;-75
2023/03/09 19:51:51;;;;;;;31.77;21.95;;;;;;;1.85;100.00;99774.41;10209774;28;20107;-75
2023/03/09 19:56:48;;;;;;;27.88;20.02;;;;;;;1.83;100.00;99784.69;10216816;28;20042;-75
2023/03/09 20:01:47;;;;;;;28.85;19.10;;;;;;;1.85;100.00;99777.09;10212395;28;20107;-76
2023/03/09 20:06:50;;;;;;;30.02;19.80;;;;;;;1.88;100.00;99765.78;10221786;28;20045;-75
2023/03/09 20:11:46;;;;;;;;;;;;;;;1.56;100.00;99762.81;10226809;28;20045;-75
2023/03/09 20:16:43;;;;;;;31.35;20.20;;;;;;;1.71;100.00;99751.91;10227414;28;19925;-75
2023/03/09 20:21:40;;;;;;;30.50;19.92;;;;;;;1.50;100.00;99743.16;10215007;28;20045;-75
2023/03/09 20:26:40;;;;;;;32.17;22.02;;;;;;;1.60;100.00;99742.28;10220879;28;20100;-75
2023/03/09 20:31:47;;;;;;;29.77;20.40;;;;;;;1.71;100.00;99729.53;10218606;28;20049;-76
2023/03/09 20:36:43;;;;;;;29.75;19.73;;;;;;;1.67;100.00;99731.97;10205946;28;20046;-75
2023/03/09 20:41:41;;;;;;;32.35;20.70;;;;;;;1.58;100.00;99733.66;10213994;28;20045;-75
2023/03/09 20:46:38;;;;;;;31.88;22.85;;;;;;;1.60;100.00;99721.56;10222816;28;20046;-76
2023/03/09 20:51:35;;;;;;;29.75;21.77;;;;;;;1.63;100.00;99714.78;10218537;28;20071;-76
2023/03/09 20:56:32;;;;;;;33.45;23.00;;;;;;;1.60;100.00;99701.88;10217438;28;20489;-75
2023/03/09 21:01:28;;;;;;;32.42;22.13;;;;;;;1.62;100.00;99703.19;10221688;28;20084;-75
2023/03/09 21:06:25;;;;;;;34.03;23.30;;;;;;;1.61;100.00;99695.41;10217634;28;20767;-78
2023/03/09 21:11:22;;;;;;;32.40;22.85;;;;;;;1.50;100.00;99678.50;10221794;28;20091;-77
2023/03/09 21:16:22;;;;;;;32.53;21.83;;;;;;;1.59;100.00;99676.81;10228538;28;20053;-75
2023/03/09 21:21:20;;;;;;;31.83;21.58;;;;;;;1.58;100.00;99680.63;10228005;28;20045;-75
2023/03/09 21:26:24;;;;;;;33.08;21.88;;;;;;;1.58;100.00;99679.78;10223126;28;20141;-75
2023/03/09 21:31:25;;;;;;;36.35;24.88;;;;;;;1.33;100.00;99672.75;10230019;28;20049;-76
2023/03/09 21:36:22;;;;;;;40.17;26.45;;;;;;;1.24;100.00;99653.69;10234815;28;20075;-76
2023/03/09 21:41:19;;;;;;;34.42;24.27;;;;;;;1.30;100.00;99649.06;10230444;28;20660;-76
2023/03/09 21:46:15;;;;;;;30.85;22.10;;;;;;;1.29;100.00;99642.88;10233913;28;20050;-75
2023/03/09 21:51:12;;;;;;;35.83;22.98;;;;;;;1.36;100.00;99635.25;10234356;28;20056;-76
2023/03/09 21:56:10;;;;;;;35.65;23.73;;;;;;;1.36;100.00;99621.81;10228801;28;20076;-76
2023/03/09 22:01:09;;;;;;;33.50;22.98;;;;;;;1.34;100.00;99615.09;10235208;28;20133;-76
2023/03/09 22:06:05;;;;;;;36.88;24.65;;;;;;;1.32;100.00;99591.13;10229266;28;20447;-76
2023/03/09 22:11:03;;;;;;;36.15;23.40;;;;;;;1.19;100.00;99581.03;10233663;28;20096;-76
2023/03/09 22:15:59;;;;;;;36.03;24.15;;;;;;;1.25;100.00;99577.19;10232671;28;20050;-76
2023/03/09 22:21:02;;;;;;;37.88;25.05;;;;;;;1.20;100.00;99569.16;10234739;28;20052;-76
2023/03/09 22:25:59;;;;;;;35.20;22.45;;;;;;;1.22;100.00;99564.31;10227164;28;20042;-76
2023/03/09 22:30:56;;;;;;;37.00;24.55;;;;;;;1.24;100.00;99556.75;10231220;28;20147;-76
2023/03/09 22:36:05;;;;;;;31.73;22.25;;;;;;;1.30;100.00;99544.84;10233843;28;20335;-76
2023/03/09 22:41:06;;;;;;;41.13;24.70;;;;;;;1.34;100.00;99535.09;10234108;28;20416;-76
2023/03/09 22:46:05;;;;;;;35.50;24.33;;;;;;;1.29;100.00;99520.88;10231508;28;20427;-76